Time;durP1;ratioP1;P1;durP2;ratioP2;P2;SDS_P1;SDS_P2;PMS_P1;PMS_P2;Temp;Humidity;BMP_temperature;BMP_pressure;BME280_temperature;BME280_humidity;BME280_pressure;Samples;Min_cycle;Max_cycle;Signal;HPM_P1;HPM_P2
2022/09/14 00:00:53;;;;;;;3.87;3.37;;;;;;;20.20;73.03;98064.94;5119271;27;40246;-82
2022/09/14 00:03:20;;;;;;;4.77;3.67;;;;;;;20.24;72.99;98071.66;5135879;27;41552;-82
2022/09/14 00:05:48;;;;;;;3.80;3.50;;;;;;;20.24;72.80;98071.66;5135889;27;42818;-83
2022/09/14 00:08:16;;;;;;;3.40;3.10;;;;;;;20.22;72.85;98068.31;5136086;27;43062;-80
2022/09/14 00:10:47;;;;;;;3.73;3.23;;;;;;;20.24;72.89;98077.03;5153476;27;38905;-82
2022/09/14 00:13:15;;;;;;;2.93;2.63;;;;;;;20.12;72.63;98051.56;5135655;27;41636;-83
2022/09/14 00:15:45;;;;;;;2.87;2.67;;;;;;;20.22;72.99;98073.69;5117133;27;43063;-80
2022/09/14 00:18:12;;;;;;;3.20;2.90;;;;;;;20.21;72.90;98063.09;5153069;27;42482;-83
2022/09/14 00:20:40;;;;;;;2.70;2.50;;;;;;;20.16;72.80;98058.25;5117881;27;41148;-78
2022/09/14 00:23:08;;;;;;;2.97;2.67;;;;;;;20.13;73.52;98058.63;5134521;27;40480;-77
2022/09/14 00:25:36;;;;;;;3.27;3.07;;;;;;;20.11;73.61;98055.25;5135152;27;42887;-81
2022/09/14 00:28:05;;;;;;;3.17;2.87;;;;;;;20.12;73.49;98040.81;5134540;27;43945;-83
2022/09/14 00:30:32;;;;;;;2.87;2.67;;;;;;;20.15;73.04;98036.94;5117720;27;39094;-83
2022/09/14 00:33:00;;;;;;;3.50;3.20;;;;;;;20.16;73.57;98042.09;5134271;27;41731;-82
2022/09/14 00:35:28;;;;;;;5.27;3.47;;;;;;;20.13;73.73;98036.28;5153124;27;43039;-79
2022/09/14 00:37:55;;;;;;;3.10;2.80;;;;;;;20.15;73.50;98040.47;5133667;27;41998;-83
2022/09/14 00:40:23;;;;;;;2.93;2.67;;;;;;;19.83;73.35;97998.44;5134341;27;40647;-83
2022/09/14 00:42:51;;;;;;;3.20;2.90;;;;;;;20.13;72.96;98037.09;5134238;27;40667;-83
2022/09/14 00:45:22;;;;;;;3.13;2.90;;;;;;;20.15;73.09;98024.34;5134624;27;43783;-84
2022/09/14 00:47:52;;;;;;;3.00;2.80;;;;;;;20.15;72.79;98018.97;5168891;27;41917;-81
2022/09/14 00:50:20;;;;;;;2.93;2.67;;;;;;;20.07;72.99;98005.53;5151527;27;40090;-79
2022/09/14 00:52:50;;;;;;;3.40;3.10;;;;;;;20.09;72.91;98016.97;5134107;27;41765;-80
2022/09/14 00:55:22;;;;;;;3.60;3.30;;;;;;;19.85;72.52;97998.28;5152849;27;42461;-82
2022/09/14 00:57:53;;;;;;;2.33;2.13;;;;;;;20.05;72.98;98018.31;5116698;27;41994;-82
2022/09/14 01:00:24;;;;;;;2.97;2.77;;;;;;;20.01;73.02;98030.44;5113768;27;40142;-82
2022/09/14 01:02:52;;;;;;;3.47;3.17;;;;;;;19.97;73.51;98031.81;5134606;27;40452;-83
2022/09/14 01:05:26;;;;;;;3.87;3.13;;;;;;;19.77;74.29;98014.44;5153114;27;42969;-80
2022/09/14 01:08:31;;;;;;;3.30;3.00;;;;;;;19.83;74.47;98029.84;5152198;27;43303;-81
2022/09/14 01:11:14;;;;;;;3.30;3.00;;;;;;;19.76;74.45;98023.50;5125332;27;40056;-80
2022/09/14 01:13:52;;;;;;;3.00;2.70;;;;;;;19.73;74.55;98035.44;5118261;27;41599;-80
2022/09/14 01:16:31;;;;;;;3.37;3.07;;;;;;;19.69;74.78;98039.47;5134282;27;41249;-83
2022/09/14 01:19:02;;;;;;;2.77;2.57;;;;;;;19.67;75.02;98031.56;5151322;27;41118;-81
2022/09/14 01:21:33;;;;;;;2.90;2.60;;;;;;;19.66;75.01;98026.38;5133174;27;39233;-82
2022/09/14 01:24:07;;;;;;;2.90;2.60;;;;;;;19.39;75.15;97984.66;5151039;27;43628;-80
2022/09/14 01:27:07;;;;;;;3.70;3.23;;;;;;;19.62;75.39;98012.47;5112827;27;43441;-79
2022/09/14 01:29:42;;;;;;;3.30;3.00;;;;;;;19.58;75.39;98005.75;5147670;27;43247;-80
2022/09/14 01:32:14;;;;;;;2.87;2.57;;;;;;;19.57;75.75;97997.88;5132663;27;40282;-79
2022/09/14 01:34:49;;;;;;;3.10;2.80;;;;;;;19.55;76.25;97987.31;5151056;27;42947;-79
2022/09/14 01:37:29;;;;;;;5.23;3.20;;;;;;;19.53;76.16;97992.03;5150321;27;43168;-82
2022/09/14 01:40:03;;;;;;;2.93;2.73;;;;;;;19.55;75.87;97999.88;5151603;27;43236;-80
2022/09/14 01:42:34;;;;;;;3.90;3.00;;;;;;;19.54;76.10;97995.53;5132127;27;40775;-79
2022/09/14 01:45:07;;;;;;;4.27;3.87;;;;;;;19.53;76.13;98004.63;5152916;27;41357;-81
2022/09/14 01:47:41;;;;;;;3.43;3.00;;;;;;;19.53;75.95;98001.94;5172818;27;41360;-81
2022/09/14 01:50:13;;;;;;;3.30;2.93;;;;;;;19.49;76.13;98000.59;5134828;27;42246;-82
2022/09/14 01:52:47;;;;;;;3.30;2.83;;;;;;;19.44;76.60;97986.81;5155679;27;38998;-80
2022/09/14 01:55:20;;;;;;;3.47;3.17;;;;;;;19.34;76.39;97968.22;5155468;27;40645;-79
2022/09/14 01:57:54;;;;;;;3.80;3.40;;;;;;;19.43;76.84;97985.97;5138137;27;42262;-79
2022/09/14 02:00:23;;;;;;;3.97;3.23;;;;;;;19.43;76.59;97977.06;5168083;27;42513;-80
2022/09/14 02:02:55;;;;;;;3.93;3.63;;;;;;;19.41;76.67;97971.06;5154605;27;38984;-80
2022/09/14 02:05:31;;;;;;;3.63;3.33;;;;;;;19.20;76.91;97937.56;5154583;27;43047;-80
2022/09/14 02:07:58;;;;;;;3.40;3.10;;;;;;;19.23;76.75;97945.28;5153372;27;43489;-78
2022/09/14 02:10:27;;;;;;;3.60;3.30;;;;;;;19.35;77.18;97970.72;5171614;27;43129;-79
2022/09/14 02:12:56;;;;;;;3.80;3.50;;;;;;;19.21;77.09;97949.13;5136902;27;38887;-80
2022/09/14 02:15:25;;;;;;;4.03;3.63;;;;;;;19.09;77.26;97923.66;5136962;27;40651;-80
2022/09/14 02:17:54;;;;;;;3.03;2.83;;;;;;;19.31;77.33;97963.19;5136410;27;41462;-81
2022/09/14 02:20:26;;;;;;;3.17;2.93;;;;;;;19.30;77.50;97964.19;5136965;27;43008;-80
2022/09/14 02:22:54;;;;;;;4.10;3.73;;;;;;;19.27;78.12;97959.19;5153744;27;38841;-79
2022/09/14 02:25:22;;;;;;;3.90;3.60;;;;;;;19.26;78.03;97960.19;5119515;27;40675;-79
2022/09/14 02:27:50;;;;;;;4.37;3.80;;;;;;;19.24;78.53;97964.91;5136265;27;41258;-79
2022/09/14 02:30:19;;;;;;;5.27;3.47;;;;;;;19.21;79.31;97966.06;5154843;27;42291;-79
2022/09/14 02:33:01;;;;;;;4.10;3.70;;;;;;;19.18;79.00;97961.03;5136523;27;40661;-78
2022/09/14 02:35:36;;;;;;;3.47;3.27;;;;;;;19.18;78.53;97961.03;5136433;27;43683;-78
2022/09/14 02:38:14;;;;;;;3.17;2.93;;;;;;;19.19;78.56;97967.25;5153242;27;43636;-78
2022/09/14 02:40:53;;;;;;;4.03;3.63;;;;;;;19.19;78.92;97969.94;5119588;27;42352;-79
2022/09/14 02:43:31;;;;;;;3.80;3.50;;;;;;;19.17;78.61;97972.78;5135594;27;39909;-79
2022/09/14 02:46:11;;;;;;;3.17;2.87;;;;;;;19.17;78.51;97974.63;5133276;27;42283;-79
2022/09/14 02:48:47;;;;;;;4.50;3.23;;;;;;;19.01;78.68;97940.63;5135894;27;42715;-79
2022/09/14 02:51:25;;;;;;;4.40;4.00;;;;;;;18.85;79.37;97922.72;5151516;27;42354;-79
2022/09/14 02:53:59;;;;;;;4.03;3.40;;;;;;;19.11;79.53;97976.16;5136677;27;39244;-78
2022/09/14 02:56:29;;;;;;;4.20;3.87;;;;;;;19.12;79.08;97993.09;5152404;27;42685;-78
2022/09/14 02:58:57;;;;;;;4.10;3.63;;;;;;;19.11;79.62;97991.44;5136639;27;43258;-78
2022/09/14 03:01:26;;;;;;;5.90;4.07;;;;;;;19.13;79.35;98000.16;5136543;27;42640;-77
2022/09/14 03:03:54;;;;;;;5.53;4.93;;;;;;;19.09;79.65;98006.88;5154954;27;39998;-77
2022/09/14 03:06:22;;;;;;;3.93;3.53;;;;;;;19.05;79.81;98002.84;5119402;27;42484;-77
2022/09/14 03:08:50;;;;;;;6.60;5.67;;;;;;;18.80;79.84;97962.63;5118928;27;42429;-77
2022/09/14 03:11:18;;;;;;;5.00;4.50;;;;;;;19.05;80.19;98010.88;5119969;27;41949;-77
2022/09/14 03:13:45;;;;;;;6.60;4.90;;;;;;;18.97;80.95;98004.53;5135992;27;40083;-76
2022/09/14 03:16:15;;;;;;;5.23;4.73;;;;;;;19.02;81.13;98020.97;5153423;27;41728;-76
2022/09/14 03:18:44;;;;;;;5.60;5.03;;;;;;;19.01;82.19;98002.34;5153923;27;42950;-77
2022/09/14 03:21:14;;;;;;;5.97;4.53;;;;;;;19.00;81.84;97989.94;5152958;27;41221;-77
2022/09/14 03:23:45;;;;;;;6.20;4.67;;;;;;;19.02;81.62;97978.03;5135864;27;39765;-76
2022/09/14 03:26:15;;;;;;;5.03;4.60;;;;;;;19.04;82.03;97971.66;5118186;27;40974;-78
2022/09/14 03:28:43;;;;;;;5.33;4.43;;;;;;;19.07;81.48;97963.25;5153968;27;43474;-76
2022/09/14 03:31:12;;;;;;;4.60;3.77;;;;;;;19.00;81.80;97937.13;5153992;27;42413;-77
2022/09/14 03:33:40;;;;;;;5.93;4.33;;;;;;;19.07;82.20;97941.78;5153964;27;40957;-77
2022/09/14 03:36:16;;;;;;;5.00;4.57;;;;;;;19.06;82.19;97929.38;5135122;27;41609;-77
2022/09/14 03:38:45;;;;;;;4.70;4.20;;;;;;;19.02;82.33;97908.28;5152951;27;43812;-77
2022/09/14 03:41:13;;;;;;;8.20;5.77;;;;;;;18.95;82.98;97907.25;5135018;27;41475;-78
2022/09/14 03:43:42;;;;;;;7.60;5.13;;;;;;;18.97;82.81;97909.78;5134502;27;41072;-78
2022/09/14 03:46:11;;;;;;;4.57;4.17;;;;;;;18.96;82.92;97908.94;5153322;27;42676;-76
2022/09/14 03:48:39;;;;;;;6.33;5.73;;;;;;;18.97;83.15;97905.25;5153522;27;42515;-75
2022/09/14 03:51:09;;;;;;;7.80;7.00;;;;;;;18.96;83.21;97903.56;5153469;27;42950;-77
2022/09/14 03:53:39;;;;;;;7.03;5.90;;;;;;;18.82;83.45;97890.03;5134676;27;40067;-77
2022/09/14 03:56:09;;;;;;;6.43;5.67;;;;;;;18.91;83.14;97900.59;5117888;27;40581;-75
2022/09/14 03:58:37;;;;;;;6.20;5.57;;;;;;;18.87;83.16;97904.59;5153070;27;45755;-76
2022/09/14 04:01:06;;;;;;;6.70;5.50;;;;;;;18.88;82.98;97903.59;5134662;27;41195;-75
2022/09/14 04:03:34;;;;;;;5.87;5.33;;;;;;;18.89;83.05;97912.50;5118177;27;39434;-78
2022/09/14 04:06:04;;;;;;;5.63;4.93;;;;;;;18.79;82.76;97893.88;5135739;27;40663;-76
2022/09/14 04:08:32;;;;;;;6.33;5.43;;;;;;;18.88;82.50;97911.66;5153460;27;42731;-77
2022/09/14 04:11:07;;;;;;;5.60;5.00;;;;;;;18.89;82.54;97907.13;5118500;27;42378;-76
2022/09/14 04:13:35;;;;;;;7.30;5.33;;;;;;;18.85;82.46;97900.41;5153836;27;39716;-77
2022/09/14 04:16:03;;;;;;;7.03;5.07;;;;;;;18.90;82.45;97906.97;5118619;27;41707;-76
2022/09/14 04:18:31;;;;;;;5.33;4.83;;;;;;;18.85;82.45;97903.94;5117986;27;45145;-78
2022/09/14 04:21:01;;;;;;;5.77;4.93;;;;;;;18.90;82.51;97898.06;5170392;27;42246;-78
2022/09/14 04:23:29;;;;;;;5.03;4.63;;;;;;;18.90;82.47;97890.03;5135177;27;40359;-77
2022/09/14 04:25:57;;;;;;;4.40;3.80;;;;;;;18.90;82.29;97872.09;5135580;27;41767;-78
2022/09/14 04:28:26;;;;;;;6.97;4.77;;;;;;;18.88;82.63;97863.38;5135077;27;44091;-77
2022/09/14 04:30:56;;;;;;;6.87;5.23;;;;;;;18.83;82.43;97852.31;5135669;27;43141;-78
2022/09/14 04:33:24;;;;;;;5.87;5.03;;;;;;;18.87;82.00;97853.63;5115864;27;38977;-78
2022/09/14 04:36:00;;;;;;;6.27;4.33;;;;;;;18.92;82.07;97851.25;5134187;27;42234;-76
2022/09/14 04:38:29;;;;;;;8.10;5.33;;;;;;;18.92;82.48;97853.94;5151685;27;43859;-79
2022/09/14 04:40:57;;;;;;;5.53;4.40;;;;;;;18.88;82.82;97862.53;5117167;27;41134;-76
2022/09/14 04:43:27;;;;;;;7.10;5.00;;;;;;;18.85;82.66;97863.69;5134254;27;38731;-79
2022/09/14 04:46:01;;;;;;;5.10;4.23;;;;;;;18.85;82.43;97858.34;5169831;27;42516;-78
2022/09/14 04:48:33;;;;;;;5.90;4.67;;;;;;;18.83;82.60;97851.47;5152798;27;41523;-76
2022/09/14 04:51:03;;;;;;;4.70;4.10;;;;;;;18.75;82.39;97841.59;5166889;27;42899;-78
2022/09/14 04:53:30;;;;;;;7.07;4.20;;;;;;;18.82;82.33;97858.66;5135030;27;40056;-78
2022/09/14 04:56:02;;;;;;;5.43;4.90;;;;;;;18.71;82.99;97850.16;5135359;27;41726;-79
2022/09/14 04:58:31;;;;;;;5.43;4.90;;;;;;;18.77;82.76;97855.69;5134969;27;44698;-77
2022/09/14 05:01:02;;;;;;;6.77;4.97;;;;;;;18.78;82.88;97852.00;5135334;27;42431;-77
2022/09/14 05:03:30;;;;;;;5.53;5.00;;;;;;;18.76;82.90;97854.00;5170252;27;39899;-78
2022/09/14 05:06:02;;;;;;;6.03;5.43;;;;;;;18.75;83.22;97857.69;5135135;27;41682;-76
2022/09/14 05:08:29;;;;;;;8.83;5.50;;;;;;;18.74;83.02;97858.69;5134295;27;42720;-79
2022/09/14 05:10:57;;;;;;;6.43;5.50;;;;;;;18.71;83.10;97859.03;5133322;27;42583;-79
2022/09/14 05:13:25;;;;;;;7.40;5.87;;;;;;;18.72;83.00;97857.19;5133613;27;39118;-79
2022/09/14 05:15:55;;;;;;;5.90;5.00;;;;;;;18.72;83.14;97858.03;5152801;27;42861;-78
2022/09/14 05:18:23;;;;;;;7.10;4.87;;;;;;;18.74;83.12;97853.34;5116683;27;41843;-77
2022/09/14 05:20:50;;;;;;;5.97;5.37;;;;;;;18.74;83.02;97849.81;5135906;27;41582;-80
2022/09/14 05:23:18;;;;;;;5.20;4.70;;;;;;;18.75;83.04;97857.69;5137365;27;38913;-79
2022/09/14 05:25:52;;;;;;;5.97;5.10;;;;;;;18.75;83.57;97848.81;5156165;27;41813;-80
2022/09/14 05:28:20;;;;;;;6.30;5.47;;;;;;;18.64;83.53;97844.66;5154614;27;42917;-79
2022/09/14 05:30:48;;;;;;;6.83;5.13;;;;;;;18.72;83.40;97841.09;5137647;27;43233;-78
2022/09/14 05:33:17;;;;;;;5.63;4.90;;;;;;;18.63;83.36;97827.72;5137001;27;39905;-80
2022/09/14 05:35:45;;;;;;;7.80;5.40;;;;;;;18.70;83.33;97833.22;5137327;27;40645;-79
2022/09/14 05:38:13;;;;;;;5.70;4.87;;;;;;;18.72;83.68;97820.47;5119375;27;41830;-79
2022/09/14 05:40:41;;;;;;;8.37;6.30;;;;;;;18.73;83.66;97822.16;5137800;27;41978;-78
2022/09/14 05:43:09;;;;;;;5.53;5.03;;;;;;;18.70;83.83;97821.66;5155650;27;40906;-81
2022/09/14 05:45:37;;;;;;;5.07;4.57;;;;;;;18.74;83.43;97828.38;5120005;27;40833;-80
2022/09/14 05:48:05;;;;;;;5.67;5.13;;;;;;;18.76;83.68;97826.34;5119710;27;41755;-80
2022/09/14 05:50:34;;;;;;;5.97;5.37;;;;;;;18.75;83.61;97824.66;5120128;27;41556;-78
2022/09/14 05:53:02;;;;;;;4.43;3.90;;;;;;;18.80;83.44;97831.19;5155302;27;40966;-78
2022/09/14 05:55:29;;;;;;;5.17;4.67;;;;;;;18.81;83.74;97830.16;5119505;27;40750;-78
2022/09/14 05:57:57;;;;;;;5.63;4.80;;;;;;;18.82;83.79;97837.22;5136922;27;42453;-78
2022/09/14 06:00:26;;;;;;;6.60;4.87;;;;;;;18.74;83.56;97823.84;5137417;27;41151;-77
2022/09/14 06:02:55;;;;;;;4.70;4.27;;;;;;;18.86;83.68;97845.75;5120312;27;40263;-78
2022/09/14 06:05:24;;;;;;;5.63;4.53;;;;;;;18.87;83.62;97845.59;5156376;27;41879;-77
2022/09/14 06:07:53;;;;;;;4.90;4.40;;;;;;;18.85;83.36;97846.75;5154488;27;42762;-78
2022/09/14 06:10:22;;;;;;;4.43;4.03;;;;;;;18.84;83.46;97839.72;5119786;27;41252;-77
2022/09/14 06:12:49;;;;;;;4.73;4.07;;;;;;;18.90;83.13;97837.22;5135801;27;40649;-78
2022/09/14 06:15:17;;;;;;;6.77;5.27;;;;;;;18.93;83.45;97833.31;5155419;27;41733;-78
2022/09/14 06:17:45;;;;;;;5.30;4.80;;;;;;;18.94;83.11;97838.50;5136329;27;43224;-78
2022/09/14 06:20:12;;;;;;;4.70;4.17;;;;;;;18.96;83.35;97844.53;5136729;27;41434;-78
2022/09/14 06:22:40;;;;;;;4.37;3.93;;;;;;;18.88;82.97;97819.59;5136264;27;40871;-79
2022/09/14 06:25:10;;;;;;;6.17;4.17;;;;;;;18.98;83.13;97826.44;5136699;27;40569;-78
2022/09/14 06:27:38;;;;;;;5.40;4.70;;;;;;;19.04;83.38;97824.06;5136284;27;42548;-78
2022/09/14 06:30:07;;;;;;;6.67;5.40;;;;;;;19.07;83.07;97824.53;5119294;27;41240;-78
2022/09/14 06:32:35;;;;;;;5.37;4.87;;;;;;;19.09;82.97;97824.38;5154609;27;40716;-79
2022/09/14 06:35:03;;;;;;;4.77;4.10;;;;;;;19.15;83.09;97816.47;5136575;27;41797;-79
2022/09/14 06:37:31;;;;;;;5.77;5.13;;;;;;;19.20;83.24;97819.44;5118119;27;42638;-79
2022/09/14 06:39:59;;;;;;;5.27;4.60;;;;;;;19.19;83.18;97822.31;5155074;27;43204;-79
2022/09/14 06:42:29;;;;;;;5.73;5.13;;;;;;;19.19;83.50;97822.31;5154917;27;40938;-79
2022/09/14 06:44:57;;;;;;;6.03;5.03;;;;;;;19.15;83.50;97821.00;5172273;27;42346;-79
2022/09/14 06:47:25;;;;;;;6.20;5.10;;;;;;;19.10;83.50;97818.00;5135631;27;42227;-79
2022/09/14 06:49:53;;;;;;;5.40;4.80;;;;;;;19.08;84.27;97814.66;5136589;27;42272;-78
2022/09/14 06:52:20;;;;;;;6.40;4.67;;;;;;;19.06;84.09;97819.34;5154353;27;40888;-79
2022/09/14 06:54:48;;;;;;;6.50;5.77;;;;;;;19.02;84.23;97817.03;5154831;27;42473;-79
2022/09/14 06:57:16;;;;;;;7.33;6.27;;;;;;;18.92;85.17;97811.00;5135947;27;42886;-79
2022/09/14 06:59:45;;;;;;;6.80;5.33;;;;;;;18.95;84.92;97816.03;5118697;27;41180;-78
2022/09/14 07:02:14;;;;;;;4.67;4.23;;;;;;;18.98;84.89;97810.34;5155086;27;40035;-78
2022/09/14 07:04:42;;;;;;;6.07;5.43;;;;;;;19.00;85.00;97811.00;5137014;27;40847;-79
2022/09/14 07:07:10;;;;;;;5.50;5.00;;;;;;;18.97;85.20;97814.03;5136860;27;42846;-79
2022/09/14 07:09:37;;;;;;;5.87;5.03;;;;;;;18.95;85.05;97818.72;5119866;27;41630;-79
2022/09/14 07:12:05;;;;;;;9.77;6.07;;;;;;;18.92;84.94;97800.28;5154068;27;38777;-78
2022/09/14 07:14:35;;;;;;;5.77;4.70;;;;;;;18.98;84.68;97804.97;5119738;27;42030;-79
2022/09/14 07:17:04;;;;;;;6.13;4.57;;;;;;;19.07;84.91;97807.59;5155205;27;42826;-79
2022/09/14 07:19:32;;;;;;;4.93;4.40;;;;;;;19.12;84.56;97816.81;5155385;27;42209;-79
2022/09/14 07:22:01;;;;;;;4.40;4.03;;;;;;;19.19;84.56;97822.31;5136757;27;40864;-80
2022/09/14 07:24:28;;;;;;;5.83;5.23;;;;;;;19.23;84.42;97818.28;5137200;27;41705;-82
2022/09/14 07:26:56;;;;;;;5.63;5.13;;;;;;;19.25;84.61;97824.31;5119163;27;41830;-81
2022/09/14 07:29:24;;;;;;;4.50;4.10;;;;;;;19.27;84.30;97824.97;5119388;27;41953;-81
2022/09/14 07:31:53;;;;;;;4.90;4.40;;;;;;;19.27;84.31;97830.34;5153425;27;40959;-78
2022/09/14 07:34:23;;;;;;;8.00;5.10;;;;;;;19.29;84.73;97833.66;5170441;27;41909;-80
2022/09/14 07:36:51;;;;;;;6.50;5.77;;;;;;;19.28;84.30;97821.28;5134476;27;41639;-81
2022/09/14 07:39:19;;;;;;;6.10;4.83;;;;;;;19.36;84.34;97834.66;5118096;27;42090;-80
2022/09/14 07:41:47;;;;;;;6.43;5.00;;;;;;;19.41;84.05;97826.88;5118099;27;39933;-78
2022/09/14 07:44:17;;;;;;;5.27;4.60;;;;;;;19.52;83.68;97836.44;5116911;27;42009;-78
2022/09/14 07:46:46;;;;;;;5.30;4.80;;;;;;;19.50;83.82;97828.56;5169652;27;42994;-78
2022/09/14 07:49:15;;;;;;;6.03;4.87;;;;;;;19.64;83.64;97849.28;5134998;27;41659;-78
2022/09/14 07:51:44;;;;;;;5.77;4.97;;;;;;;19.68;83.75;97845.22;5117761;27;39846;-79
2022/09/14 07:54:15;;;;;;;5.03;4.47;;;;;;;19.69;83.63;97844.19;5153638;27;41704;-80
2022/09/14 07:56:44;;;;;;;5.93;4.60;;;;;;;19.67;83.56;97832.78;5153712;27;42291;-80
2022/09/14 07:59:13;;;;;;;6.17;5.03;;;;;;;19.82;83.35;97840.09;5153536;27;42347;-79
2022/09/14 08:01:41;;;;;;;5.53;4.47;;;;;;;19.94;83.30;97833.28;5134719;27;40036;-79
2022/09/14 08:04:09;;;;;;;5.03;4.53;;;;;;;19.99;83.37;97836.28;5153382;27;42758;-80
2022/09/14 08:06:39;;;;;;;5.70;5.10;;;;;;;20.04;83.27;97839.25;5135175;27;43241;-79
2022/09/14 08:09:08;;;;;;;6.77;5.93;;;;;;;20.05;83.15;97848.97;5136021;27;41967;-77
2022/09/14 08:11:37;;;;;;;8.33;5.10;;;;;;;20.13;83.52;97851.63;5136153;27;38947;-78
2022/09/14 08:14:08;;;;;;;5.00;4.50;;;;;;;20.18;82.97;97848.38;5154493;27;42248;-78
2022/09/14 08:16:37;;;;;;;5.50;5.00;;;;;;;20.24;83.15;97853.88;5151262;27;43602;-79
2022/09/14 08:19:07;;;;;;;6.63;5.83;;;;;;;20.34;82.51;97843.69;5135627;27;43353;-76
2022/09/14 08:21:35;;;;;;;5.90;5.27;;;;;;;20.54;82.12;97845.88;5135820;27;39347;-80
2022/09/14 08:24:03;;;;;;;5.33;4.83;;;;;;;20.64;82.16;97844.63;5153834;27;42974;-79
2022/09/14 08:26:36;;;;;;;5.23;4.67;;;;;;;20.67;82.31;97846.09;5135463;27;41831;-79
2022/09/14 08:29:05;;;;;;;4.97;4.50;;;;;;;20.88;82.08;97832.75;5135496;27;40818;-78
2022/09/14 08:31:37;;;;;;;6.57;5.73;;;;;;;21.12;81.68;97835.16;5135542;27;39253;-80
2022/09/14 08:34:06;;;;;;;5.30;4.23;;;;;;;21.25;81.32;97822.91;5150866;27;42360;-81
2022/09/14 08:36:35;;;;;;;6.27;5.20;;;;;;;21.37;80.59;97824.94;5152016;27;42626;-79
2022/09/14 08:39:04;;;;;;;6.93;5.87;;;;;;;21.45;80.65;97834.75;5152647;27;43112;-79
2022/09/14 08:41:38;;;;;;;6.10;5.50;;;;;;;21.60;80.64;97834.72;5134468;27;38874;-79
2022/09/14 08:44:15;;;;;;;6.87;5.93;;;;;;;21.77;80.20;97850.44;5134622;27;41629;-77
2022/09/14 08:46:46;;;;;;;6.57;4.67;;;;;;;21.80;79.62;97860.00;5150705;27;43748;-79
2022/09/14 08:49:22;;;;;;;5.13;4.63;;;;;;;21.79;79.77;97861.88;5150653;27;43207;-78
2022/09/14 08:51:50;;;;;;;5.70;4.23;;;;;;;21.82;79.74;97864.19;5150571;27;40068;-77
2022/09/14 08:54:18;;;;;;;5.03;4.53;;;;;;;21.85;79.27;97855.75;5136401;27;42023;-77
2022/09/14 08:56:57;;;;;;;5.00;3.87;;;;;;;21.79;78.96;97853.78;5157286;27;43783;-78
2022/09/14 08:59:39;;;;;;;4.10;3.70;;;;;;;21.73;79.02;97854.56;5138657;27;41028;-77
2022/09/14 09:02:23;;;;;;;4.13;3.53;;;;;;;21.72;78.89;97854.75;5139044;27;38917;-78
2022/09/14 09:04:54;;;;;;;3.80;3.47;;;;;;;21.73;78.88;97854.56;5139136;27;40489;-77
2022/09/14 09:07:31;;;;;;;3.80;3.50;;;;;;;21.70;78.66;97854.94;5154851;27;42738;-78
2022/09/14 09:10:00;;;;;;;3.53;3.17;;;;;;;21.55;78.41;97853.31;5154063;27;42141;-77
2022/09/14 09:12:37;;;;;;;3.47;3.17;;;;;;;21.59;78.81;97879.69;5156936;27;39951;-78
2022/09/14 09:15:15;;;;;;;3.50;3.20;;;;;;;21.51;79.06;97871.72;5136856;27;41984;-78
2022/09/14 09:17:46;;;;;;;4.33;3.93;;;;;;;21.50;79.00;97878.97;5154446;27;42588;-79
2022/09/14 09:20:17;;;;;;;4.03;3.63;;;;;;;21.53;78.90;97877.75;5156243;27;43272;-78
2022/09/14 09:22:52;;;;;;;4.60;3.60;;;;;;;21.49;78.92;97863.84;5155907;27;39879;-78
2022/09/14 09:25:22;;;;;;;5.83;4.60;;;;;;;21.67;78.68;97889.50;5152792;27;41906;-78
2022/09/14 09:27:55;;;;;;;3.77;3.40;;;;;;;21.71;78.68;97894.34;5136780;27;41673;-78
2022/09/14 09:30:22;;;;;;;4.30;3.90;;;;;;;21.77;78.22;97896.25;5137425;27;41270;-77
2022/09/14 09:32:51;;;;;;;4.03;3.53;;;;;;;21.78;78.25;97900.63;5119813;27;39659;-79
2022/09/14 09:35:37;;;;;;;4.47;4.07;;;;;;;21.79;78.22;97906.84;5152526;27;41645;-78
2022/09/14 09:38:14;;;;;;;4.77;4.30;;;;;;;21.77;77.89;97909.75;5169999;27;43590;-78
2022/09/14 09:40:47;;;;;;;3.90;3.53;;;;;;;21.73;77.88;97884.22;5137389;27;40993;-77
2022/09/14 09:43:18;;;;;;;5.13;3.87;;;;;;;22.00;77.50;97887.25;5154757;27;40657;-77
2022/09/14 09:45:51;;;;;;;4.27;3.73;;;;;;;22.24;77.19;97894.94;5152681;27;41897;-79
2022/09/14 09:48:22;;;;;;;3.90;3.43;;;;;;;22.66;76.59;97901.31;5154872;27;41847;-79
2022/09/14 09:50:58;;;;;;;4.10;3.67;;;;;;;22.98;76.31;97908.03;5155465;27;41241;-80
2022/09/14 09:53:26;;;;;;;4.37;3.97;;;;;;;23.11;74.92;97908.97;5137270;27;40848;-78
2022/09/14 09:55:54;;;;;;;3.60;3.30;;;;;;;23.26;73.63;97906.09;5154970;27;42449;-78
2022/09/14 09:58:30;;;;;;;3.30;2.80;;;;;;;23.41;73.16;97900.59;5155969;27;43831;-78
2022/09/14 10:01:00;;;;;;;3.20;2.90;;;;;;;23.51;72.77;97911.88;5153337;27;43159;-79
2022/09/14 10:03:32;;;;;;;2.97;2.77;;;;;;;23.66;72.52;97915.28;5137471;27;40526;-77
2022/09/14 10:06:06;;;;;;;2.50;2.30;;;;;;;23.72;72.41;97911.78;5134042;27;42743;-79
2022/09/14 10:08:39;;;;;;;2.33;2.10;;;;;;;23.68;71.83;97910.50;5155383;27;44069;-77
2022/09/14 10:11:23;;;;;;;2.17;1.90;;;;;;;23.53;71.73;97897.13;5169295;27;43203;-78
2022/09/14 10:13:53;;;;;;;2.60;2.40;;;;;;;23.45;71.98;97894.59;5120465;27;39701;-78
2022/09/14 10:16:21;;;;;;;2.40;2.20;;;;;;;23.79;71.86;97891.00;5136479;27;42658;-77
2022/09/14 10:18:50;;;;;;;2.07;1.97;;;;;;;24.41;70.39;97895.31;5135196;27;42376;-81
2022/09/14 10:21:19;;;;;;;2.40;2.20;;;;;;;24.77;68.95;97884.06;5155015;27;43279;-76
2022/09/14 10:24:02;;;;;;;2.30;2.03;;;;;;;25.14;67.68;97874.47;5136302;27;38950;-79
2022/09/14 10:26:34;;;;;;;2.00;1.80;;;;;;;25.39;67.23;97872.72;5136606;27;40781;-79
2022/09/14 10:29:39;;;;;;;2.13;2.03;;;;;;;25.72;66.12;97871.78;5155304;27;43601;-77
2022/09/14 10:32:18;;;;;;;2.20;2.00;;;;;;;26.04;65.27;97868.06;5152676;27;41987;-81
2022/09/14 10:34:45;;;;;;;1.67;1.50;;;;;;;26.44;64.82;97870.53;5119506;27;38985;-79
2022/09/14 10:37:21;;;;;;;2.07;1.63;;;;;;;27.42;63.21;97866.03;5154301;27;42867;-80
2022/09/14 10:39:59;;;;;;;2.43;1.90;;;;;;;28.16;61.53;97864.88;5135741;27;43086;-78
2022/09/14 10:42:33;;;;;;;1.80;1.70;;;;;;;28.50;58.46;97878.84;5136270;27;41406;-79
2022/09/14 10:45:14;;;;;;;1.90;1.80;;;;;;;28.22;57.39;97874.84;5136248;27;40683;-77
2022/09/14 10:48:06;;;;;;;1.80;1.70;;;;;;;27.68;58.38;97847.78;5135839;27;42098;-81
2022/09/14 10:50:45;;;;;;;1.97;1.87;;;;;;;27.53;59.36;97837.25;5133144;27;42764;-80
2022/09/14 10:53:24;;;;;;;1.90;1.57;;;;;;;27.82;59.19;97825.56;5169596;27;43010;-81
2022/09/14 10:56:00;;;;;;;1.70;1.60;;;;;;;28.08;59.25;97823.53;5171242;27;39117;-78
2022/09/14 10:58:41;;;;;;;1.90;1.50;;;;;;;27.78;59.66;97832.56;5135221;27;42151;-78
2022/09/14 11:01:24;;;;;;;1.77;1.67;;;;;;;28.12;59.32;97820.13;5135677;27;43270;-79
2022/09/14 11:04:08;;;;;;;1.50;1.40;;;;;;;29.06;57.09;97815.59;5170399;27;42301;-82
2022/09/14 11:06:48;;;;;;;3.03;1.93;;;;;;;29.92;56.38;97811.91;5132867;27;40214;-81
2022/09/14 11:09:23;;;;;;;1.70;1.60;;;;;;;31.04;54.29;97822.81;5168209;27;42703;-81
2022/09/14 11:12:00;;;;;;;1.90;1.73;;;;;;;31.90;50.47;97841.50;5136353;27;41639;-78
2022/09/14 11:14:44;;;;;;;1.80;1.70;;;;;;;31.72;50.30;97851.69;5152231;27;41996;-81
2022/09/14 11:17:25;;;;;;;1.83;1.73;;;;;;;31.61;48.91;97849.88;5135900;27;40069;-77
2022/09/14 11:20:00;;;;;;;1.80;1.70;;;;;;;31.12;49.75;97840.75;5167855;27;41939;-80
2022/09/14 11:22:39;;;;;;;2.20;2.10;;;;;;;30.84;49.78;97844.41;5134422;27;42669;-83
2022/09/14 11:25:13;;;;;;;2.47;2.27;;;;;;;30.27;50.52;97841.00;5135748;27;42258;-80
2022/09/14 11:27:46;;;;;;;1.90;1.80;;;;;;;29.82;52.45;97822.66;5135051;27;38542;-78
2022/09/14 11:30:18;;;;;;;2.43;2.23;;;;;;;29.42;53.22;97835.50;5167118;27;41863;-80
2022/09/14 11:32:53;;;;;;;2.40;2.20;;;;;;;29.01;54.04;97820.97;5117949;27;41693;-78
2022/09/14 11:35:24;;;;;;;2.30;2.10;;;;;;;28.67;54.71;97811.69;5150868;27;41994;-81
2022/09/14 11:37:56;;;;;;;2.83;2.63;;;;;;;28.75;55.07;97795.00;5133257;27;40486;-79
2022/09/14 11:40:29;;;;;;;2.80;2.60;;;;;;;28.90;54.55;97784.47;5166980;27;42495;-78
2022/09/14 11:43:01;;;;;;;2.70;2.50;;;;;;;29.27;54.30;97795.06;5170726;27;42851;-80
2022/09/14 11:45:32;;;;;;;2.80;2.60;;;;;;;29.64;53.64;97787.38;5166939;27;42207;-81
2022/09/14 11:48:10;;;;;;;2.77;2.57;;;;;;;29.84;53.77;97784.19;5168987;27;39970;-80
2022/09/14 11:50:41;;;;;;;3.10;2.80;;;;;;;30.24;52.95;97789.56;5151654;27;43182;-81
2022/09/14 11:53:13;;;;;;;2.87;2.67;;;;;;;30.41;52.48;97778.66;5135634;27;43071;-81